Time;durP1;ratioP1;P1;durP2;ratioP2;P2;SDS_P1;SDS_P2;PMS_P1;PMS_P2;Temp;Humidity;BMP_temperature;BMP_pressure;BME280_temperature;BME280_humidity;BME280_pressure;Samples;Min_cycle;Max_cycle;Signal;HPM_P1;HPM_P2
2022/04/18 00:00:22;;;;;;;14.15;11.85;;;6.70;59.90;;;;;;5034656;28;20213;-57
2022/04/18 00:02:49;;;;;;;15.55;11.93;;;6.60;60.00;;;;;;5035246;28;20209;-57
2022/04/18 00:05:16;;;;;;;13.57;11.50;;;6.60;60.50;;;;;;5033881;28;20198;-57
2022/04/18 00:07:43;;;;;;;13.27;11.18;;;6.60;61.00;;;;;;5033591;28;20229;-58
2022/04/18 00:10:10;;;;;;;13.68;10.95;;;6.50;61.10;;;;;;5033293;28;20202;-58
2022/04/18 00:12:37;;;;;;;14.82;11.02;;;6.50;61.40;;;;;;5033630;28;20233;-58
2022/04/18 00:15:05;;;;;;;14.68;11.38;;;6.50;61.80;;;;;;5032993;28;20226;-59
2022/04/18 00:17:34;;;;;;;15.38;10.23;;;6.50;62.10;;;;;;5032854;28;20229;-58
2022/04/18 00:20:01;;;;;;;23.45;15.23;;;6.40;62.40;;;;;;5033472;28;20206;-58
2022/04/18 00:22:28;;;;;;;16.13;12.18;;;6.40;62.90;;;;;;5033227;28;20206;-57
2022/04/18 00:24:55;;;;;;;16.63;10.85;;;6.30;63.40;;;;;;5034660;28;20205;-58
2022/04/18 00:27:22;;;;;;;13.80;11.25;;;6.40;63.90;;;;;;5036916;28;20241;-57
2022/04/18 00:29:50;;;;;;;16.33;11.98;;;6.40;63.90;;;;;;5037303;28;20214;-58
2022/04/18 00:32:18;;;;;;;16.50;11.95;;;6.40;64.00;;;;;;5036975;28;20206;-58
2022/04/18 00:34:47;;;;;;;15.73;12.02;;;6.40;64.10;;;;;;5037202;28;20223;-59
2022/04/18 00:37:14;;;;;;;15.05;12.30;;;6.30;64.50;;;;;;5037055;28;20229;-58
2022/04/18 00:39:41;;;;;;;13.02;11.55;;;6.30;64.80;;;;;;5037254;28;20203;-57
2022/04/18 00:42:08;;;;;;;15.52;11.75;;;6.30;65.20;;;;;;5037020;28;20202;-57
2022/04/18 00:44:35;;;;;;;15.35;11.38;;;6.20;65.70;;;;;;5037124;28;20230;-57
2022/04/18 00:47:02;;;;;;;20.33;11.57;;;6.20;66.10;;;;;;5036973;28;20230;-58
2022/04/18 00:49:29;;;;;;;14.60;10.82;;;6.20;67.00;;;;;;5036701;28;20206;-57
2022/04/18 00:51:58;;;;;;;15.30;10.82;;;6.10;66.70;;;;;;5037305;28;20202;-57
2022/04/18 00:54:26;;;;;;;18.02;12.93;;;6.00;67.20;;;;;;5036508;28;20222;-57
2022/04/18 00:56:54;;;;;;;17.75;12.40;;;6.10;67.70;;;;;;5036314;28;20222;-57
2022/04/18 00:59:22;;;;;;;16.15;11.88;;;6.10;68.10;;;;;;5036470;28;20682;-56
2022/04/18 01:01:50;;;;;;;16.55;11.13;;;6.00;68.30;;;;;;5036630;28;20234;-57
2022/04/18 01:04:17;;;;;;;13.32;10.88;;;6.00;68.60;;;;;;5036601;28;20202;-58
2022/04/18 01:06:45;;;;;;;13.30;11.70;;;6.00;69.00;;;;;;5036404;28;20225;-58
2022/04/18 01:09:14;;;;;;;12.25;10.85;;;6.00;69.00;;;;;;5036560;28;20206;-57
2022/04/18 01:11:41;;;;;;;16.30;11.43;;;6.00;69.10;;;;;;5036286;28;20198;-57
2022/04/18 01:14:08;;;;;;;13.98;10.35;;;6.00;69.40;;;;;;5036211;28;20219;-58
2022/04/18 01:16:35;;;;;;;13.05;11.07;;;6.00;69.50;;;;;;5036268;28;20202;-57
2022/04/18 01:19:02;;;;;;;15.60;11.30;;;5.90;69.90;;;;;;5035918;28;20206;-58
2022/04/18 01:21:31;;;;;;;13.85;11.40;;;5.90;70.00;;;;;;5035879;28;20671;-58
2022/04/18 01:23:58;;;;;;;17.65;12.05;;;5.90;70.10;;;;;;5035854;28;20202;-57
2022/04/18 01:29:21;;;;;;;16.25;11.23;;;5.80;70.50;;;;;;5014324;28;20210;-57
2022/04/18 01:31:48;;;;;;;12.73;10.50;;;5.70;71.10;;;;;;5031371;28;20203;-57
2022/04/18 01:34:16;;;;;;;14.07;11.52;;;5.70;71.80;;;;;;5037481;28;20226;-58
2022/04/18 01:36:44;;;;;;;13.98;11.18;;;5.60;72.40;;;;;;5037292;28;20573;-57
2022/04/18 01:39:11;;;;;;;17.23;12.57;;;5.60;73.10;;;;;;5038439;28;20202;-59
2022/04/18 01:41:38;;;;;;;16.38;11.80;;;5.60;73.80;;;;;;5037112;28;20211;-57
2022/04/18 01:44:05;;;;;;;12.02;10.45;;;5.50;74.40;;;;;;5037328;28;20289;-58
2022/04/18 01:46:32;;;;;;;13.60;11.43;;;5.50;75.10;;;;;;5036358;28;20202;-58
2022/04/18 01:48:59;;;;;;;14.30;11.15;;;5.40;75.70;;;;;;5036161;28;20198;-57
2022/04/18 01:51:26;;;;;;;14.23;12.63;;;5.40;76.20;;;;;;5036538;28;20686;-58
2022/04/18 01:53:55;;;;;;;18.15;13.75;;;5.40;76.70;;;;;;5036838;28;20210;-58
2022/04/18 01:56:22;;;;;;;13.50;10.60;;;5.50;77.40;;;;;;5036616;28;20206;-58
2022/04/18 01:58:49;;;;;;;18.20;14.00;;;5.50;77.80;;;;;;5036376;28;20211;-58
2022/04/18 02:01:17;;;;;;;18.40;14.25;;;5.40;78.20;;;;;;5036579;28;20214;-58
2022/04/18 02:03:45;;;;;;;16.40;13.02;;;5.40;78.80;;;;;;5035637;28;20668;-58
2022/04/18 02:06:12;;;;;;;17.80;13.75;;;5.40;79.60;;;;;;5035576;28;20209;-58
2022/04/18 02:08:40;;;;;;;18.35;15.18;;;5.30;80.30;;;;;;5035349;28;20222;-59
2022/04/18 02:11:09;;;;;;;19.33;15.05;;;5.30;81.20;;;;;;5036002;28;20203;-57
2022/04/18 02:13:36;;;;;;;16.40;14.70;;;5.20;82.00;;;;;;5035873;28;20203;-57
2022/04/18 02:16:04;;;;;;;20.48;14.75;;;5.20;83.00;;;;;;5035676;28;20222;-58
2022/04/18 02:18:31;;;;;;;17.48;14.60;;;5.10;83.70;;;;;;5035407;28;20284;-58
2022/04/18 02:20:58;;;;;;;17.50;14.90;;;5.10;84.50;;;;;;5035210;28;20206;-57
2022/04/18 02:23:25;;;;;;;20.10;14.55;;;5.10;85.00;;;;;;5035154;28;20206;-58
2022/04/18 02:25:52;;;;;;;22.08;15.07;;;5.00;85.30;;;;;;5035269;28;20198;-57
2022/04/18 02:28:21;;;;;;;17.95;13.77;;;5.10;85.80;;;;;;5034629;28;20253;-59
2022/04/18 02:30:48;;;;;;;20.88;13.63;;;5.00;86.10;;;;;;5034866;28;20202;-57
2022/04/18 02:33:16;;;;;;;15.20;12.98;;;5.00;86.40;;;;;;5034936;28;20588;-58
2022/04/18 02:35:43;;;;;;;14.13;12.65;;;5.00;86.90;;;;;;5034876;28;20760;-56
2022/04/18 02:38:10;;;;;;;16.63;12.73;;;5.00;87.00;;;;;;5034858;28;20218;-55
2022/04/18 02:40:37;;;;;;;19.15;13.48;;;4.90;86.90;;;;;;5035445;28;20203;-56
2022/04/18 02:43:04;;;;;;;18.23;13.02;;;4.90;86.90;;;;;;5034746;28;20202;-57
2022/04/18 02:45:33;;;;;;;14.43;12.18;;;4.90;87.10;;;;;;5035686;28;20202;-56
2022/04/18 02:48:01;;;;;;;24.35;12.27;;;4.90;87.60;;;;;;5034525;28;20230;-57
2022/04/18 02:50:28;;;;;;;15.27;11.45;;;4.80;87.80;;;;;;5035838;28;20202;-56
2022/04/18 02:52:55;;;;;;;15.63;12.50;;;4.80;88.10;;;;;;5036797;28;20558;-56
2022/04/18 02:55:23;;;;;;;17.30;12.77;;;4.80;88.40;;;;;;5036787;28;20592;-56
2022/04/18 02:57:50;;;;;;;17.17;13.30;;;4.70;88.50;;;;;;5035821;28;20301;-55
2022/04/18 03:00:18;;;;;;;16.35;12.23;;;4.70;88.70;;;;;;5035778;28;20210;-57
2022/04/18 03:02:46;;;;;;;15.02;11.93;;;4.70;88.70;;;;;;5035600;28;20674;-57
2022/04/18 03:05:13;;;;;;;16.15;12.32;;;4.70;88.80;;;;;;5035446;28;20212;-55
2022/04/18 03:07:40;;;;;;;16.63;13.15;;;4.60;88.80;;;;;;5034887;28;20710;-55
2022/04/18 03:10:09;;;;;;;16.23;12.35;;;4.60;88.90;;;;;;5034550;28;20206;-56
2022/04/18 03:12:36;;;;;;;18.30;13.43;;;4.60;89.10;;;;;;5034389;28;20214;-56
2022/04/18 03:15:04;;;;;;;15.82;13.27;;;4.60;89.20;;;;;;5033955;28;20215;-55
2022/04/18 03:17:31;;;;;;;15.98;12.90;;;4.50;89.40;;;;;;5033874;28;20226;-56
2022/04/18 03:20:00;;;;;;;16.08;13.23;;;4.50;89.60;;;;;;5033944;28;20217;-55
2022/04/18 03:22:27;;;;;;;15.68;13.10;;;4.50;89.50;;;;;;5033606;28;20206;-56
2022/04/18 03:24:54;;;;;;;18.15;14.35;;;4.50;89.70;;;;;;5033612;28;20202;-57
2022/04/18 03:27:21;;;;;;;17.17;14.23;;;4.50;90.00;;;;;;5057629;22;20234;-56
2022/04/18 03:29:49;;;;;;;18.02;14.73;;;4.50;90.00;;;;;;5034623;28;20209;-56
2022/04/18 03:32:16;;;;;;;18.60;14.52;;;4.50;90.00;;;;;;5034047;28;20244;-57
2022/04/18 03:34:43;;;;;;;16.85;14.68;;;4.50;90.00;;;;;;5034071;28;20552;-57
2022/04/18 03:39:56;;;;;;;18.92;14.50;;;4.50;90.00;;;;;;5033971;28;20186;-56
2022/04/18 03:42:30;;;;;;;21.13;15.95;;;4.50;90.00;;;;;;5033832;28;20571;-57
2022/04/18 03:44:59;;;;;;;18.33;14.35;;;4.50;90.00;;;;;;5033823;28;20183;-57
2022/04/18 03:47:27;;;;;;;18.55;14.57;;;4.50;90.00;;;;;;5033300;28;20265;-56
2022/04/18 03:49:54;;;;;;;18.52;15.68;;;4.50;90.00;;;;;;5033863;28;20202;-57
2022/04/18 03:52:23;;;;;;;18.83;15.18;;;4.50;90.00;;;;;;5033390;28;20198;-56
2022/04/18 03:54:51;;;;;;;17.65;14.90;;;4.40;90.00;;;;;;5033652;28;20656;-56
2022/04/18 03:57:18;;;;;;;21.13;15.27;;;4.40;90.20;;;;;;5033078;28;20732;-57
2022/04/18 03:59:46;;;;;;;19.63;16.33;;;4.40;90.20;;;;;;5032965;28;20678;-57
2022/04/18 04:02:13;;;;;;;19.10;15.52;;;4.30;90.40;;;;;;5033589;28;20249;-56
2022/04/18 04:04:42;;;;;;;20.90;16.00;;;4.30;90.50;;;;;;5033128;28;20649;-56
2022/04/18 04:09:37;;;;;;;20.20;15.48;;;4.30;90.50;;;;;;5168988;27;20627;-55
2022/04/18 04:12:05;;;;;;;20.40;14.45;;;4.30;90.50;;;;;;5152572;27;20198;-56
2022/04/18 04:14:32;;;;;;;18.17;15.65;;;4.20;90.50;;;;;;5152090;27;20234;-56
2022/04/18 04:17:00;;;;;;;19.08;14.00;;;4.20;90.80;;;;;;5152279;27;20202;-56
2022/04/18 04:19:27;;;;;;;16.70;14.90;;;4.20;90.80;;;;;;5152334;27;20195;-56
2022/04/18 04:21:54;;;;;;;22.45;14.98;;;4.20;90.80;;;;;;5152279;27;20202;-56
2022/04/18 04:24:21;;;;;;;19.48;14.38;;;4.20;90.90;;;;;;5152823;27;20205;-55
2022/04/18 04:26:50;;;;;;;18.20;13.88;;;4.20;91.10;;;;;;5151828;27;20202;-56
2022/04/18 04:29:18;;;;;;;18.77;15.18;;;4.20;91.70;;;;;;5152122;27;20222;-56
2022/04/18 04:31:45;;;;;;;16.35;12.95;;;4.20;91.50;;;;;;5152164;27;20213;-56
2022/04/18 04:34:12;;;;;;;20.25;15.20;;;4.20;91.50;;;;;;5152083;27;20281;-56
2022/04/18 04:36:41;;;;;;;15.23;13.63;;;4.40;91.50;;;;;;5152215;27;20202;-56
2022/04/18 04:39:08;;;;;;;17.38;14.15;;;4.50;91.30;;;;;;5152282;27;20249;-56
2022/04/18 04:41:36;;;;;;;20.35;13.68;;;4.60;91.20;;;;;;5152274;27;20267;-55
2022/04/18 04:44:05;;;;;;;18.27;14.15;;;4.70;91.00;;;;;;5152168;27;20198;-56
2022/04/18 04:46:33;;;;;;;16.38;14.13;;;4.80;91.00;;;;;;5151748;27;20206;-56
2022/04/18 04:49:00;;;;;;;20.60;15.73;;;5.00;90.90;;;;;;5151965;27;20226;-56
2022/04/18 04:51:27;;;;;;;16.10;14.27;;;5.20;90.80;;;;;;5151508;27;20198;-56
2022/04/18 04:53:54;;;;;;;15.65;13.82;;;5.40;90.70;;;;;;5151594;27;20198;-56
2022/04/18 04:56:24;;;;;;;16.55;13.50;;;5.50;90.00;;;;;;5151808;27;20547;-56
2022/04/18 04:58:53;;;;;;;20.73;15.70;;;5.70;89.50;;;;;;5151730;27;20214;-56
2022/04/18 05:01:21;;;;;;;18.98;13.35;;;5.80;89.00;;;;;;5151661;27;20301;-56
2022/04/18 05:03:48;;;;;;;18.00;15.35;;;6.00;88.30;;;;;;5151631;27;20225;-57
2022/04/18 05:06:15;;;;;;;18.02;14.70;;;6.10;87.40;;;;;;5151519;27;20199;-56
2022/04/18 05:08:42;;;;;;;19.98;15.02;;;6.30;86.80;;;;;;5150942;27;20222;-56
2022/04/18 05:11:09;;;;;;;16.58;14.85;;;6.40;86.00;;;;;;5151172;27;20698;-57
2022/04/18 05:13:36;;;;;;;16.92;14.00;;;6.60;85.10;;;;;;5151085;27;20646;-56
2022/04/18 05:16:04;;;;;;;15.40;13.80;;;6.70;84.80;;;;;;5151159;27;20206;-56
2022/04/18 05:18:32;;;;;;;16.83;14.70;;;6.80;83.60;;;;;;5151183;27;20214;-56
2022/04/18 05:20:59;;;;;;;18.48;14.30;;;7.00;82.60;;;;;;5137326;27;20590;-57
2022/04/18 05:23:26;;;;;;;19.27;14.85;;;7.10;81.70;;;;;;5137015;27;20701;-57
2022/04/18 05:25:53;;;;;;;16.85;15.05;;;7.10;80.60;;;;;;5137745;27;20566;-56
2022/04/18 05:28:20;;;;;;;17.20;15.40;;;7.00;79.60;;;;;;5137895;27;20230;-57
2022/04/18 05:30:47;;;;;;;15.18;13.68;;;6.90;79.20;;;;;;5137059;27;20207;-56
2022/04/18 05:33:14;;;;;;;16.38;14.13;;;6.80;79.10;;;;;;5137406;27;20203;-56
2022/04/18 05:35:43;;;;;;;15.93;13.95;;;6.70;79.00;;;;;;5137207;27;20203;-56
2022/04/18 05:38:10;;;;;;;16.85;14.82;;;6.60;78.80;;;;;;5136804;27;20713;-56
2022/04/18 05:40:37;;;;;;;16.05;14.35;;;6.50;78.70;;;;;;5137670;27;20206;-56
2022/04/18 05:43:04;;;;;;;20.23;16.13;;;6.50;78.80;;;;;;5137078;27;20709;-56
2022/04/18 05:45:31;;;;;;;20.13;15.25;;;6.50;78.70;;;;;;5136946;27;20195;-56
2022/04/18 05:47:58;;;;;;;16.92;14.38;;;6.50;78.40;;;;;;5137160;27;20240;-56
2022/04/18 05:50:26;;;;;;;16.58;14.82;;;6.50;78.20;;;;;;5136959;27;20203;-56
2022/04/18 05:52:55;;;;;;;19.58;14.95;;;6.50;77.70;;;;;;5137009;27;20203;-56
2022/04/18 05:55:22;;;;;;;16.98;14.25;;;6.50;77.50;;;;;;5136589;27;20743;-56
2022/04/18 05:57:50;;;;;;;15.13;13.43;;;6.60;77.30;;;;;;5136734;27;20230;-56
2022/04/18 06:00:17;;;;;;;17.63;13.93;;;6.70;76.90;;;;;;5136856;27;20203;-56
2022/04/18 06:02:44;;;;;;;16.50;13.30;;;6.70;76.40;;;;;;5136576;27;20206;-56
2022/04/18 06:05:12;;;;;;;16.80;15.10;;;6.80;76.00;;;;;;5136727;27;20199;-56
2022/04/18 06:07:42;;;;;;;19.90;14.35;;;6.90;75.40;;;;;;5136393;27;20227;-55
2022/04/18 06:10:11;;;;;;;15.93;13.32;;;7.00;75.10;;;;;;5136699;27;20214;-56
2022/04/18 06:12:38;;;;;;;15.40;13.57;;;7.10;74.60;;;;;;5136347;27;20662;-56
2022/04/18 06:15:06;;;;;;;17.98;13.60;;;7.20;74.10;;;;;;5137026;27;20203;-57
2022/04/18 06:17:34;;;;;;;16.45;14.10;;;7.20;73.50;;;;;;5136469;27;20226;-56
2022/04/18 06:20:01;;;;;;;20.33;13.15;;;7.30;73.00;;;;;;5136125;27;20236;-56
2022/04/18 06:22:29;;;;;;;19.38;13.60;;;7.40;72.50;;;;;;5136550;27;20203;-56
2022/04/18 06:24:56;;;;;;;16.20;14.43;;;7.50;72.10;;;;;;5136455;27;20206;-56
2022/04/18 06:27:24;;;;;;;18.52;13.25;;;7.50;71.60;;;;;;5136262;27;20225;-56
2022/04/18 06:29:52;;;;;;;20.33;13.82;;;7.60;71.20;;;;;;5136560;27;20579;-55
2022/04/18 06:32:21;;;;;;;19.05;13.88;;;7.80;70.80;;;;;;5135532;27;20608;-55
2022/04/18 06:34:48;;;;;;;15.93;13.60;;;7.80;70.10;;;;;;5136283;27;20670;-55
2022/04/18 06:37:15;;;;;;;20.63;13.43;;;7.90;69.60;;;;;;5136399;27;20218;-57
2022/04/18 06:39:43;;;;;;;17.38;12.93;;;8.00;69.00;;;;;;5136190;27;20195;-57
2022/04/18 06:42:10;;;;;;;18.15;13.70;;;8.10;68.70;;;;;;5136290;27;20201;-56
2022/04/18 06:44:39;;;;;;;21.20;13.48;;;8.20;68.30;;;;;;5136671;27;20217;-57
2022/04/18 06:47:07;;;;;;;20.42;13.50;;;8.40;67.70;;;;;;5137776;27;20256;-56
2022/04/18 06:49:34;;;;;;;16.25;12.70;;;8.50;67.20;;;;;;5137239;27;20584;-57
2022/04/18 06:52:01;;;;;;;15.15;13.65;;;8.60;66.60;;;;;;5137142;27;20245;-58
2022/04/18 06:54:29;;;;;;;17.92;13.63;;;8.70;66.00;;;;;;5138024;27;20673;-57
2022/04/18 06:57:02;;;;;;;16.90;12.57;;;8.80;65.50;;;;;;5137682;27;20281;-58
2022/04/18 06:59:30;;;;;;;15.52;13.07;;;8.90;65.00;;;;;;5137321;27;20314;-57
2022/04/18 07:02:00;;;;;;;15.40;12.73;;;9.10;64.50;;;;;;5136932;27;20286;-56
2022/04/18 07:04:28;;;;;;;14.73;12.63;;;9.20;63.70;;;;;;5136559;27;20203;-57
2022/04/18 07:06:55;;;;;;;18.23;13.13;;;9.40;63.00;;;;;;5137822;27;20271;-57
2022/04/18 07:09:22;;;;;;;17.88;13.13;;;9.50;62.10;;;;;;5137763;27;20219;-57
2022/04/18 07:11:50;;;;;;;14.98;12.10;;;9.70;61.40;;;;;;5138245;27;20203;-57
2022/04/18 07:14:17;;;;;;;14.68;11.68;;;9.80;60.70;;;;;;5137664;27;20202;-58
2022/04/18 07:16:45;;;;;;;13.93;12.23;;;9.90;59.90;;;;;;5137234;27;20199;-58
2022/04/18 07:19:13;;;;;;;13.63;11.33;;;10.10;58.50;;;;;;5137278;27;20437;-58
2022/04/18 07:21:41;;;;;;;14.20;11.50;;;10.20;58.00;;;;;;5136126;27;20441;-57
2022/04/18 07:24:08;;;;;;;13.07;10.33;;;10.30;57.30;;;;;;5135092;27;20256;-56
2022/04/18 07:26:35;;;;;;;15.00;12.37;;;10.40;56.80;;;;;;5135050;27;20951;-56
2022/04/18 07:29:02;;;;;;;15.65;10.27;;;10.50;56.30;;;;;;5135428;27;20476;-58
2022/04/18 07:31:31;;;;;;;12.50;10.90;;;10.70;56.00;;;;;;5136126;27;20570;-57
2022/04/18 07:33:58;;;;;;;13.00;11.07;;;10.80;55.50;;;;;;5136501;27;20445;-56
2022/04/18 07:36:27;;;;;;;16.23;12.80;;;10.90;55.10;;;;;;5136310;27;20448;-56
2022/04/18 07:38:54;;;;;;;13.67;11.70;;;11.00;54.60;;;;;;5136436;27;20464;-56
2022/04/18 07:41:23;;;;;;;12.57;11.20;;;11.20;54.20;;;;;;5135270;27;20457;-57
2022/04/18 07:43:51;;;;;;;12.60;10.20;;;11.30;53.80;;;;;;5135634;27;20446;-58
2022/04/18 07:46:19;;;;;;;14.17;11.10;;;11.50;53.40;;;;;;5135759;27;20436;-57
2022/04/18 07:48:47;;;;;;;15.03;10.83;;;11.60;52.90;;;;;;5135966;27;20487;-57
2022/04/18 07:51:34;;;;;;;11.90;10.63;;;11.70;52.40;;;;;;5137354;27;20812;-57
2022/04/18 07:54:05;;;;;;;11.93;10.70;;;11.70;52.10;;;;;;5137711;27;20497;-57
2022/04/18 07:56:32;;;;;;;11.20;10.03;;;11.90;52.00;;;;;;5137688;27;20428;-56
2022/04/18 07:58:59;;;;;;;12.10;9.80;;;12.00;51.50;;;;;;5137206;27;20505;-57
2022/04/18 08:01:27;;;;;;;11.67;10.47;;;12.10;51.20;;;;;;5136676;27;20448;-57
2022/04/18 08:03:54;;;;;;;11.03;9.90;;;12.30;50.80;;;;;;5135545;27;20444;-57
2022/04/18 08:06:21;;;;;;;14.13;10.23;;;12.50;50.50;;;;;;5135052;27;20479;-57
2022/04/18 08:08:48;;;;;;;12.93;10.23;;;12.60;50.10;;;;;;5134140;28;20480;-57
2022/04/18 08:11:17;;;;;;;12.33;9.60;;;12.70;49.60;;;;;;5134963;27;20445;-57
2022/04/18 08:13:44;;;;;;;14.17;10.27;;;12.80;49.10;;;;;;5134596;28;20440;-57
2022/04/18 08:16:11;;;;;;;16.97;10.03;;;12.80;48.70;;;;;;5134527;27;20806;-58
2022/04/18 08:18:39;;;;;;;12.20;9.33;;;13.00;48.50;;;;;;5134186;28;20461;-57
2022/04/18 08:21:07;;;;;;;17.03;10.03;;;13.10;48.10;;;;;;5134329;27;20862;-57
2022/04/18 08:23:35;;;;;;;11.37;10.10;;;13.20;47.80;;;;;;5133668;28;20963;-57
2022/04/18 08:26:02;;;;;;;13.13;10.37;;;13.40;47.60;;;;;;5133672;28;20447;-57
2022/04/18 08:28:30;;;;;;;12.85;10.35;;;13.50;47.30;;;;;;5133888;28;20460;-57
2022/04/18 08:30:58;;;;;;;13.30;9.50;;;13.70;46.70;;;;;;5133742;28;20476;-56
2022/04/18 08:33:26;;;;;;;11.20;9.00;;;13.70;46.20;;;;;;5133809;28;20444;-56
2022/04/18 08:35:53;;;;;;;10.87;7.93;;;13.80;45.60;;;;;;5134095;28;20444;-57
2022/04/18 08:38:20;;;;;;;13.97;9.00;;;13.80;45.20;;;;;;5133480;28;20461;-57
2022/04/18 08:40:50;;;;;;;11.07;8.40;;;13.90;45.40;;;;;;5133635;28;20447;-57
2022/04/18 08:43:18;;;;;;;13.33;8.70;;;14.00;44.40;;;;;;5133795;28;20444;-57
2022/04/18 08:45:47;;;;;;;12.07;8.80;;;14.10;44.20;;;;;;5133543;28;20489;-56
2022/04/18 08:53:43;;;;;;;11.57;8.10;;;14.50;44.00;;;;;;5133531;27;20762;-56
2022/04/18 08:56:11;;;;;;;8.47;6.80;;;14.60;43.00;;;;;;5136891;27;20478;-57
2022/04/18 08:58:38;;;;;;;13.00;7.40;;;14.80;42.90;;;;;;5137163;27;20933;-57
2022/04/18 09:01:06;;;;;;;10.33;7.80;;;14.90;42.50;;;;;;5137426;27;20931;-58
2022/04/18 09:03:33;;;;;;;9.03;7.50;;;15.00;42.20;;;;;;5137587;27;20448;-56
2022/04/18 09:06:06;;;;;;;11.00;8.20;;;15.00;41.90;;;;;;5137420;27;20544;-57
2022/04/18 09:08:35;;;;;;;8.30;7.40;;;15.10;41.80;;;;;;5137129;27;20484;-57
2022/04/18 09:11:02;;;;;;;9.37;7.50;;;15.20;41.80;;;;;;5137338;27;20824;-57
2022/04/18 09:13:30;;;;;;;9.10;7.17;;;15.30;41.90;;;;;;5137296;27;20448;-57
2022/04/18 09:15:57;;;;;;;8.43;6.50;;;15.40;41.60;;;;;;5137283;27;20445;-57
2022/04/18 09:18:26;;;;;;;6.73;5.80;;;15.50;41.30;;;;;;5136993;27;20456;-57
2022/04/18 09:20:55;;;;;;;6.90;6.20;;;15.70;41.00;;;;;;5136972;27;20944;-56
2022/04/18 09:23:24;;;;;;;7.00;6.30;;;15.80;40.60;;;;;;5136762;27;20480;-57
2022/04/18 09:25:57;;;;;;;8.63;6.90;;;16.00;40.40;;;;;;5137181;27;20448;-57
2022/04/18 09:28:26;;;;;;;9.23;7.07;;;16.10;40.10;;;;;;5136931;27;20464;-57
2022/04/18 09:31:01;;;;;;;7.97;6.37;;;16.10;39.80;;;;;;5154644;22;20483;-54
2022/04/18 09:33:41;;;;;;;6.70;5.30;;;16.10;39.80;;;;;;5076520;28;20454;-56
2022/04/18 09:36:10;;;;;;;6.40;5.33;;;16.20;39.60;;;;;;5075438;28;20426;-56
2022/04/18 09:38:41;;;;;;;10.80;5.67;;;16.30;39.20;;;;;;5076597;28;20446;-56
2022/04/18 09:41:11;;;;;;;7.10;4.77;;;16.20;38.40;;;;;;5076364;28;20470;-55
2022/04/18 09:43:45;;;;;;;6.67;5.00;;;16.10;38.50;;;;;;5076055;28;20432;-55
2022/04/18 09:46:14;;;;;;;6.03;4.70;;;16.20;38.80;;;;;;5076453;28;20934;-55
2022/04/18 09:48:43;;;;;;;7.27;4.80;;;16.40;38.60;;;;;;5076490;28;20439;-54
2022/04/18 09:51:12;;;;;;;6.70;5.00;;;16.40;37.80;;;;;;5076504;28;20483;-55
2022/04/18 09:53:41;;;;;;;6.60;4.87;;;16.40;37.50;;;;;;5076790;28;20818;-56
2022/04/18 09:56:09;;;;;;;6.30;4.63;;;16.40;37.40;;;;;;5076709;28;20821;-56
2022/04/18 09:58:37;;;;;;;5.37;4.83;;;16.60;37.30;;;;;;5075784;28;20496;-56
2022/04/18 10:01:06;;;;;;;5.60;4.60;;;16.70;36.70;;;;;;5075242;28;20967;-56
2022/04/18 10:03:34;;;;;;;5.90;4.50;;;16.60;36.00;;;;;;5075759;28;20543;-56
2022/04/18 10:06:05;;;;;;;5.77;4.40;;;16.60;35.70;;;;;;5075187;28;20943;-57
2022/04/18 10:08:33;;;;;;;6.03;4.60;;;16.50;35.60;;;;;;5075683;28;20896;-56
2022/04/18 10:11:02;;;;;;;4.83;4.07;;;16.50;35.50;;;;;;5075401;28;20491;-56
2022/04/18 10:13:30;;;;;;;6.17;4.67;;;16.60;35.50;;;;;;5075320;28;20455;-55
2022/04/18 10:15:59;;;;;;;4.60;3.80;;;16.80;35.50;;;;;;5075051;28;20446;-55
2022/04/18 10:18:27;;;;;;;4.40;4.00;;;17.00;35.10;;;;;;5075356;28;20458;-55
2022/04/18 10:21:16;;;;;;;4.30;3.90;;;16.90;34.50;;;;;;5075346;28;20447;-56
2022/04/18 10:24:14;;;;;;;5.43;4.10;;;16.80;34.70;;;;;;5076943;28;20963;-57
2022/04/18 10:27:20;;;;;;;6.50;4.53;;;16.90;34.60;;;;;;5076645;28;20451;-56
2022/04/18 10:29:51;;;;;;;5.30;4.80;;;17.00;34.90;;;;;;5075431;28;20467;-55
2022/04/18 10:32:22;;;;;;;6.97;6.27;;;17.20;34.80;;;;;;5075226;28;20478;-54
2022/04/18 10:34:50;;;;;;;6.03;5.43;;;17.10;34.30;;;;;;5074766;28;20926;-55
2022/04/18 10:37:23;;;;;;;7.07;6.30;;;17.10;34.60;;;;;;5074371;28;20451;-56
2022/04/18 10:39:58;;;;;;;8.33;6.83;;;17.00;34.60;;;;;;5075016;28;20431;-56
2022/04/18 10:42:30;;;;;;;8.27;7.27;;;16.90;35.00;;;;;;5074457;28;20462;-56
2022/04/18 10:45:15;;;;;;;7.10;6.40;;;16.90;35.40;;;;;;5074438;28;20443;-54
2022/04/18 10:48:10;;;;;;;7.33;6.63;;;16.80;35.50;;;;;;5076866;28;20477;-55
2022/04/18 10:50:40;;;;;;;9.70;6.43;;;16.90;35.80;;;;;;5074994;28;20497;-57
2022/04/18 10:53:18;;;;;;;8.47;6.93;;;17.10;35.70;;;;;;5074717;28;20455;-56
2022/04/18 10:56:13;;;;;;;8.10;7.30;;;17.10;35.40;;;;;;5074751;28;20459;-56
2022/04/18 10:58:44;;;;;;;7.40;6.70;;;17.10;35.30;;;;;;5074453;28;20557;-53
2022/04/18 11:01:12;;;;;;;7.37;6.67;;;17.10;35.30;;;;;;5074098;28;20459;-55
2022/04/18 11:03:46;;;;;;;6.47;5.77;;;17.00;35.30;;;;;;5073959;28;20439;-54
2022/04/18 11:06:50;;;;;;;8.53;6.23;;;17.10;35.30;;;;;;5073885;28;20902;-53
2022/04/18 11:09:22;;;;;;;6.60;5.70;;;17.30;34.70;;;;;;5074247;28;20427;-57
2022/04/18 11:11:53;;;;;;;6.43;5.77;;;17.40;35.20;;;;;;5074058;28;20467;-55
2022/04/18 11:14:25;;;;;;;6.73;6.03;;;17.50;34.30;;;;;;5074386;28;20438;-57
2022/04/18 11:16:55;;;;;;;6.70;6.00;;;17.70;34.00;;;;;;5073653;28;20800;-55
2022/04/18 11:19:24;;;;;;;6.67;5.90;;;17.80;33.50;;;;;;5073895;28;20509;-55
2022/04/18 11:22:16;;;;;;;6.33;5.73;;;17.80;33.10;;;;;;5074351;28;20521;-56
2022/04/18 11:25:00;;;;;;;5.70;5.20;;;17.70;32.80;;;;;;5073958;28;20430;-56
2022/04/18 11:27:37;;;;;;;5.20;4.70;;;17.70;32.70;;;;;;5073780;28;20463;-56
2022/04/18 11:30:08;;;;;;;6.17;5.43;;;17.70;32.70;;;;;;5073497;28;20840;-56
2022/04/18 11:32:38;;;;;;;6.07;5.47;;;17.80;32.70;;;;;;5073243;28;20496;-57
2022/04/18 11:35:07;;;;;;;7.87;5.93;;;17.90;32.40;;;;;;5073255;28;20439;-56
2022/04/18 11:37:36;;;;;;;7.00;5.93;;;18.00;32.10;;;;;;5075816;28;20455;-56
2022/04/18 11:40:07;;;;;;;7.37;6.10;;;18.00;31.70;;;;;;5075404;28;20525;-58
2022/04/18 11:42:35;;;;;;;6.30;5.70;;;17.90;31.60;;;;;;5073349;28;20471;-58
2022/04/18 11:45:04;;;;;;;7.27;5.70;;;18.00;31.60;;;;;;5073289;28;20447;-57
2022/04/18 11:47:35;;;;;;;5.80;4.97;;;18.30;30.80;;;;;;5073366;28;20443;-59
2022/04/18 11:50:03;;;;;;;6.53;5.80;;;18.70;30.00;;;;;;5073001;28;21025;-60
2022/04/18 11:52:32;;;;;;;6.03;5.43;;;19.40;29.40;;;;;;5072939;28;20467;-60
2022/04/18 11:55:02;;;;;;;6.70;6.00;;;19.80;28.70;;;;;;5073061;28;20458;-60
2022/04/18 11:57:32;;;;;;;6.67;5.90;;;20.20;28.30;;;;;;5073029;28;20521;-61
2022/04/18 12:00:00;;;;;;;5.70;5.17;;;20.30;27.80;;;;;;5073348;28;20431;-59
2022/04/18 12:08:00;;;;;;;6.30;5.70;;;20.50;27.20;;;;;;5032953;28;20474;-60
2022/04/18 12:10:29;;;;;;;5.80;5.30;;;20.60;26.80;;;;;;5073539;28;20479;-59
2022/04/18 12:12:57;;;;;;;5.80;5.20;;;20.60;26.80;;;;;;5072768;28;21007;-60
2022/04/18 12:15:25;;;;;;;5.90;5.27;;;20.80;26.50;;;;;;5072784;28;20486;-59
2022/04/18 12:17:53;;;;;;;6.70;5.60;;;20.90;26.20;;;;;;5073073;28;20448;-60
2022/04/18 12:20:25;;;;;;;6.27;5.67;;;20.80;26.10;;;;;;5073055;28;20444;-61
2022/04/18 12:22:53;;;;;;;6.10;5.37;;;20.60;25.90;;;;;;5072487;28;20471;-60
2022/04/18 12:25:21;;;;;;;5.17;4.67;;;20.00;25.80;;;;;;5072770;28;20447;-59
2022/04/18 12:27:48;;;;;;;6.87;6.27;;;19.40;26.20;;;;;;5072960;28;20439;-58
2022/04/18 12:30:18;;;;;;;6.20;5.50;;;19.00;27.00;;;;;;5074392;28;20498;-61
2022/04/18 12:32:47;;;;;;;6.67;6.07;;;18.60;27.70;;;;;;5076618;28;20479;-59
2022/04/18 12:35:33;;;;;;;6.03;5.47;;;18.40;28.10;;;;;;5076565;28;20851;-59
2022/04/18 12:38:02;;;;;;;6.67;6.07;;;18.20;28.10;;;;;;5077430;28;20434;-58
2022/04/18 12:40:35;;;;;;;6.33;5.70;;;17.90;28.20;;;;;;5077811;28;20442;-58
2022/04/18 12:43:07;;;;;;;6.03;5.53;;;17.70;28.50;;;;;;5077082;28;20443;-57
2022/04/18 12:45:50;;;;;;;8.07;5.77;;;17.60;28.60;;;;;;5077023;28;20480;-58
2022/04/18 12:48:22;;;;;;;7.70;5.17;;;17.60;28.70;;;;;;5076443;28;20439;-59
2022/04/18 12:50:50;;;;;;;7.77;5.43;;;17.60;28.80;;;;;;5076530;28;20586;-59
2022/04/18 12:53:17;;;;;;;5.73;5.23;;;17.80;28.90;;;;;;5077272;28;20451;-59
2022/04/18 12:55:45;;;;;;;6.00;5.40;;;18.00;29.10;;;;;;5077227;28;20455;-58
2022/04/18 12:58:18;;;;;;;6.23;5.60;;;18.10;29.10;;;;;;5078815;28;20443;-58
2022/04/18 13:00:48;;;;;;;7.47;6.50;;;18.30;29.10;;;;;;5077481;28;20443;-58
2022/04/18 13:03:16;;;;;;;6.37;5.87;;;18.40;29.40;;;;;;5076993;28;20438;-58
2022/04/18 13:05:45;;;;;;;6.70;5.80;;;18.30;29.50;;;;;;5077398;28;20471;-57